Time;durP1;ratioP1;P1;durP2;ratioP2;P2;SDS_P1;SDS_P2;PMS_P1;PMS_P2;Temp;Humidity;BMP_temperature;BMP_pressure;BME280_temperature;BME280_humidity;BME280_pressure;Samples;Min_cycle;Max_cycle;Signal;HPM_P1;HPM_P2
2022/11/24 00:01:28;;;;;;;11.90;6.83;;;;;;;5.72;nan;-23976.59;5033276;28;20179;-73
2022/11/24 00:03:59;;;;;;;7.90;4.83;;;;;;;6.05;nan;-23985.69;5033217;28;20199;-74
2022/11/24 00:06:26;;;;;;;10.37;5.57;;;;;;;6.25;nan;-23991.22;5032331;28;20298;-73
2022/11/24 00:08:52;;;;;;;8.20;5.37;;;;;;;6.15;nan;-23988.53;5032922;28;20171;-74
2022/11/24 00:11:23;;;;;;;6.83;4.70;;;;;;;6.33;nan;-23993.66;5032691;28;20274;-73
2022/11/24 00:13:49;;;;;;;10.27;6.77;;;;;;;5.88;nan;-23980.88;5033040;28;20195;-73
2022/11/24 00:16:19;;;;;;;10.87;6.33;;;;;;;6.29;nan;-23992.50;5032585;28;20171;-73
2022/11/24 00:18:47;;;;;;;9.33;5.90;;;;;;;6.32;nan;-23993.22;5032302;28;20254;-73
2022/11/24 00:21:14;;;;;;;12.87;7.03;;;;;;;5.80;nan;-23978.72;5032701;28;20177;-73
2022/11/24 00:23:39;;;;;;;10.30;5.80;;;;;;;5.92;nan;-23982.16;5032604;28;20181;-73
2022/11/24 00:26:10;;;;;;;13.07;5.20;;;;;;;6.23;nan;-23990.81;5032233;28;20595;-74
2022/11/24 00:28:37;;;;;;;9.77;5.80;;;;;;;6.12;nan;-23987.69;5032239;28;20631;-73
2022/11/24 00:31:04;;;;;;;6.97;4.90;;;;;;;5.92;nan;-23982.00;5032471;28;20199;-72
2022/11/24 00:33:30;;;;;;;12.03;6.23;;;;;;;5.59;nan;-23972.91;5032607;28;20552;-72
2022/11/24 00:35:57;;;;;;;5.37;4.23;;;;;;;5.75;nan;-23977.31;5033166;28;20175;-73
2022/11/24 00:38:23;;;;;;;9.40;5.77;;;;;;;6.16;nan;-23988.81;5032752;28;20168;-72
2022/11/24 00:40:49;;;;;;;12.23;6.50;;;;;;;6.22;nan;-23990.53;5033042;28;20234;-72
2022/11/24 00:43:14;;;;;;;9.20;5.53;;;;;;;6.20;nan;-23989.97;5032478;28;20171;-72
2022/11/24 00:45:41;;;;;;;15.20;7.27;;;;;;;5.86;nan;-23980.28;5032758;28;20171;-72
2022/11/24 00:48:06;;;;;;;10.23;6.23;;;;;;;6.01;nan;-23984.69;5032482;28;20233;-72
2022/11/24 00:50:31;;;;;;;10.10;5.97;;;;;;;6.16;nan;-23988.81;5032670;28;20167;-72
2022/11/24 00:52:57;;;;;;;9.80;5.83;;;;;;;5.98;nan;-23983.84;5032542;28;20171;-72
2022/11/24 00:55:22;;;;;;;10.27;5.57;;;;;;;5.53;nan;-23971.06;5032714;28;20172;-72
2022/11/24 00:57:48;;;;;;;9.27;5.63;;;;;;;5.34;nan;-23965.78;5032710;28;20180;-73
2022/11/24 01:00:13;;;;;;;15.00;6.63;;;;;;;5.77;nan;-23977.88;5032328;28;20220;-72
2022/11/24 01:02:39;;;;;;;11.00;6.23;;;;;;;5.67;nan;-23975.03;5032404;28;20219;-73
2022/11/24 01:05:05;;;;;;;17.83;6.07;;;;;;;5.38;nan;-23966.78;5032571;28;20171;-72
2022/11/24 01:07:30;;;;;;;8.87;5.33;;;;;;;5.18;nan;-23961.38;5031431;28;20569;-73
2022/11/24 01:09:56;;;;;;;10.07;5.20;;;;;;;5.82;nan;-23979.31;5031120;28;20171;-73
2022/11/24 01:12:21;;;;;;;10.30;5.13;;;;;;;5.73;nan;-23976.88;5032572;28;20210;-73
2022/11/24 01:14:46;;;;;;;12.30;5.27;;;;;;;5.74;nan;-23977.16;5032047;28;20186;-73
2022/11/24 01:17:12;;;;;;;9.70;5.97;;;;;;;5.18;nan;-23961.38;5032392;28;20627;-73
2022/11/24 01:19:37;;;;;;;10.50;5.13;;;;;;;5.17;nan;-23960.97;5031801;28;20175;-73
2022/11/24 01:22:02;;;;;;;11.17;7.07;;;;;;;5.45;nan;-23968.78;5032112;28;20175;-73
2022/11/24 01:24:28;;;;;;;8.30;5.57;;;;;;;5.23;nan;-23962.66;5031843;28;20171;-73
2022/11/24 01:26:53;;;;;;;10.23;5.27;;;;;;;5.26;nan;-23963.66;5032135;28;20167;-73
2022/11/24 01:29:18;;;;;;;9.83;5.47;;;;;;;5.62;nan;-23973.75;5031706;28;20357;-73
2022/11/24 01:31:44;;;;;;;7.37;4.93;;;;;;;5.54;nan;-23971.34;5031956;28;20618;-73
2022/11/24 01:34:09;;;;;;;8.30;4.40;;;;;;;5.08;nan;-23958.41;5032171;28;20179;-73
2022/11/24 01:36:35;;;;;;;8.10;5.30;;;;;;;5.42;nan;-23967.94;5031906;28;20262;-72
2022/11/24 01:39:00;;;;;;;7.57;4.77;;;;;;;4.89;nan;-23953.28;5031390;28;20316;-73
2022/11/24 01:41:26;;;;;;;12.10;5.40;;;;;;;4.93;nan;-23954.28;5031691;28;20171;-73
2022/11/24 01:43:53;;;;;;;7.63;4.63;;;;;;;4.84;nan;-23951.84;5031711;28;20176;-73
2022/11/24 01:46:45;;;;;;;8.23;4.93;;;;;;;4.72;nan;-23948.31;5031459;28;20278;-73
2022/11/24 01:49:12;;;;;;;6.40;4.60;;;;;;;4.78;nan;-23950.00;5031611;28;20175;-73
2022/11/24 01:51:44;;;;;;;11.00;5.20;;;;;;;5.22;nan;-23962.53;5031263;28;20665;-73
2022/11/24 01:54:21;;;;;;;9.83;5.63;;;;;;;5.38;nan;-23966.78;5031403;28;20505;-73
2022/11/24 01:56:50;;;;;;;11.70;5.67;;;;;;;5.15;nan;-23960.41;5013930;28;20558;-73
2022/11/24 01:59:19;;;;;;;8.37;5.83;;;;;;;5.45;nan;-23968.78;5031308;28;20262;-73
2022/11/24 02:01:47;;;;;;;7.03;4.47;;;;;;;5.24;nan;-23962.94;5031530;28;20175;-73
2022/11/24 02:04:18;;;;;;;11.13;5.80;;;;;;;5.02;nan;-23956.84;5031616;28;20254;-73
2022/11/24 02:06:45;;;;;;;10.40;5.90;;;;;;;5.31;nan;-23964.94;5031023;28;20184;-73
2022/11/24 02:09:18;;;;;;;9.90;5.43;;;;;;;5.39;nan;-23967.22;5031290;28;20269;-73
2022/11/24 02:11:43;;;;;;;7.83;5.10;;;;;;;5.31;nan;-23965.09;5031016;28;20191;-73
2022/11/24 02:14:12;;;;;;;8.77;5.37;;;;;;;5.07;nan;-23958.25;5031499;28;20160;-72
2022/11/24 02:16:40;;;;;;;12.13;5.93;;;;;;;4.95;nan;-23954.84;5031360;28;20749;-72
2022/11/24 02:19:17;;;;;;;10.10;6.53;;;;;;;4.92;nan;-23954.00;5031395;28;20658;-73
2022/11/24 02:21:42;;;;;;;12.87;5.53;;;;;;;4.83;nan;-23951.44;5035424;28;20222;-73
2022/11/24 02:24:27;;;;;;;9.03;5.03;;;;;;;5.28;nan;-23964.22;5035221;28;20642;-72
2022/11/24 02:26:52;;;;;;;8.67;4.90;;;;;;;5.14;nan;-23960.25;5034740;28;20203;-73
2022/11/24 02:29:19;;;;;;;7.17;4.60;;;;;;;5.13;nan;-23959.81;5035003;28;20640;-73
2022/11/24 02:31:53;;;;;;;10.80;5.10;;;;;;;4.77;nan;-23949.72;5035189;28;20210;-72
2022/11/24 02:34:19;;;;;;;9.97;5.43;;;;;;;4.10;nan;-23930.78;5035185;28;20198;-73
2022/11/24 02:36:44;;;;;;;9.03;6.00;;;;;;;4.68;nan;-23947.31;5035001;28;20205;-73
2022/11/24 02:39:12;;;;;;;12.50;5.20;;;;;;;5.16;nan;-23960.69;5033668;28;20562;-73
2022/11/24 02:41:42;;;;;;;8.70;5.10;;;;;;;4.61;nan;-23945.16;5034781;28;20175;-73
2022/11/24 02:44:08;;;;;;;10.20;4.27;;;;;;;4.56;nan;-23943.88;5035105;28;20591;-73
2022/11/24 02:46:33;;;;;;;8.60;4.47;;;;;;;5.04;nan;-23957.41;5034967;28;20183;-73
2022/11/24 02:48:59;;;;;;;7.87;4.83;;;;;;;4.99;nan;-23956.00;5034999;28;20171;-73
2022/11/24 02:51:24;;;;;;;7.40;4.43;;;;;;;4.39;nan;-23939.06;5034749;28;20199;-73
2022/11/24 02:53:49;;;;;;;6.93;5.00;;;;;;;4.67;nan;-23946.88;5034393;28;20198;-73
2022/11/24 02:56:15;;;;;;;8.63;4.57;;;;;;;4.29;nan;-23936.34;5034730;28;20622;-73
2022/11/24 02:58:40;;;;;;;7.93;4.27;;;;;;;4.29;nan;-23936.34;5034356;28;20176;-73
2022/11/24 03:01:06;;;;;;;6.97;4.40;;;;;;;4.64;nan;-23946.16;5034764;28;20186;-73
2022/11/24 03:03:31;;;;;;;7.07;4.77;;;;;;;4.67;nan;-23947.03;5016885;28;20167;-73
2022/11/24 03:05:57;;;;;;;7.97;4.33;;;;;;;4.58;nan;-23944.31;5034159;28;20182;-73
2022/11/24 03:08:22;;;;;;;7.87;4.53;;;;;;;4.50;nan;-23942.03;5034146;28;20175;-73
2022/11/24 03:10:48;;;;;;;6.17;4.43;;;;;;;4.48;nan;-23941.63;5034334;28;20167;-73
2022/11/24 03:13:13;;;;;;;6.90;4.10;;;;;;;4.64;nan;-23946.03;5034006;28;20163;-73
2022/11/24 03:15:39;;;;;;;7.97;4.77;;;;;;;4.45;nan;-23940.91;5034302;28;20630;-73
2022/11/24 03:18:04;;;;;;;5.43;4.13;;;;;;;4.22;nan;-23934.34;5034127;28;20171;-73
2022/11/24 03:20:30;;;;;;;8.03;4.37;;;;;;;3.90;nan;-23925.38;5034801;28;20176;-73
2022/11/24 03:22:55;;;;;;;10.83;5.43;;;;;;;4.23;nan;-23934.50;5034080;28;20182;-73
2022/11/24 03:25:21;;;;;;;4.93;4.03;;;;;;;4.23;nan;-23934.50;5034134;28;20549;-73
2022/11/24 03:27:46;;;;;;;5.13;3.87;;;;;;;4.26;nan;-23935.34;5016628;28;20171;-72
2022/11/24 03:30:12;;;;;;;5.23;3.70;;;;;;;4.25;nan;-23935.06;5032011;28;20310;-73
2022/11/24 03:32:38;;;;;;;5.30;3.73;;;;;;;4.04;nan;-23929.22;5032717;28;20238;-73
2022/11/24 03:35:04;;;;;;;4.27;3.53;;;;;;;4.00;nan;-23928.09;5033519;28;20207;-73
2022/11/24 03:37:29;;;;;;;4.53;3.17;;;;;;;3.89;nan;-23924.94;5033573;28;20195;-73
2022/11/24 03:39:55;;;;;;;6.37;4.27;;;;;;;3.74;nan;-23920.69;5033208;28;20211;-73
2022/11/24 03:42:20;;;;;;;4.53;3.40;;;;;;;4.00;nan;-23928.22;5033214;28;20175;-73
2022/11/24 03:44:46;;;;;;;7.17;4.33;;;;;;;3.68;nan;-23918.97;5033394;28;20635;-73
2022/11/24 03:47:11;;;;;;;5.70;3.50;;;;;;;3.92;nan;-23925.81;5033135;28;20645;-73
2022/11/24 03:49:37;;;;;;;7.77;4.53;;;;;;;3.41;nan;-23911.56;5032834;28;20178;-72
2022/11/24 03:52:03;;;;;;;5.30;4.00;;;;;;;3.67;nan;-23918.69;5032878;28;20199;-73
2022/11/24 03:54:29;;;;;;;7.50;4.67;;;;;;;4.19;nan;-23933.34;5033203;28;20164;-73
2022/11/24 03:56:54;;;;;;;5.40;3.47;;;;;;;3.83;nan;-23923.25;5033211;28;20596;-73
2022/11/24 03:59:20;;;;;;;3.63;3.30;;;;;;;4.15;nan;-23932.34;5033217;28;20176;-73
2022/11/24 04:01:45;;;;;;;7.83;4.57;;;;;;;3.82;nan;-23922.97;5032693;28;20237;-73
2022/11/24 04:04:12;;;;;;;7.33;3.77;;;;;;;4.20;nan;-23933.78;5032484;28;20561;-73
2022/11/24 04:06:38;;;;;;;7.87;4.47;;;;;;;4.31;nan;-23936.78;5033647;28;20634;-74
2022/11/24 04:09:04;;;;;;;5.60;4.00;;;;;;;3.97;nan;-23927.38;5033320;28;20175;-74
2022/11/24 04:14:13;;;;;;;6.13;3.70;;;;;;;4.04;nan;-23929.22;5033445;28;20229;-74
2022/11/24 04:16:39;;;;;;;10.33;5.00;;;;;;;4.18;nan;-23933.06;5015727;28;20179;-74
2022/11/24 04:19:05;;;;;;;5.83;4.20;;;;;;;4.30;nan;-23936.63;5033513;28;20248;-74
2022/11/24 04:21:30;;;;;;;5.07;3.90;;;;;;;4.53;nan;-23942.91;5033528;28;20312;-74
2022/11/24 04:23:56;;;;;;;5.03;3.70;;;;;;;4.19;nan;-23933.50;5002587;28;20188;-74
2022/11/24 04:26:22;;;;;;;6.60;4.00;;;;;;;4.31;nan;-23936.91;5014658;28;20701;-73
2022/11/24 04:28:47;;;;;;;9.33;3.67;;;;;;;4.62;nan;-23945.47;5019007;28;20249;-74
2022/11/24 04:31:12;;;;;;;5.73;3.70;;;;;;;4.60;nan;-23944.88;5033149;28;20245;-74
2022/11/24 04:33:38;;;;;;;5.67;3.73;;;;;;;4.55;nan;-23943.47;5036421;28;20187;-74
2022/11/24 04:36:04;;;;;;;4.50;3.53;;;;;;;4.73;nan;-23948.59;5033972;28;20768;-74
2022/11/24 04:38:29;;;;;;;4.47;3.37;;;;;;;4.68;nan;-23947.31;5014086;28;20187;-74
2022/11/24 04:40:54;;;;;;;6.10;3.93;;;;;;;4.13;nan;-23931.78;5035031;28;20212;-72
2022/11/24 04:43:20;;;;;;;8.27;4.23;;;;;;;4.23;nan;-23934.50;5032840;28;20199;-73
2022/11/24 04:45:46;;;;;;;5.17;3.37;;;;;;;4.28;nan;-23936.06;5033246;28;20183;-74
2022/11/24 04:48:11;;;;;;;5.20;4.07;;;;;;;4.61;nan;-23945.16;5034578;28;20198;-73
2022/11/24 04:50:38;;;;;;;7.13;4.10;;;;;;;4.63;nan;-23945.88;5033231;28;20198;-73
2022/11/24 04:53:04;;;;;;;6.80;4.77;;;;;;;4.32;nan;-23937.06;5035341;28;20183;-73
2022/11/24 04:55:29;;;;;;;6.00;3.83;;;;;;;4.27;nan;-23935.78;5014590;28;20206;-73
2022/11/24 04:57:55;;;;;;;5.47;3.30;;;;;;;4.08;nan;-23930.38;5034943;28;20190;-73
2022/11/24 05:00:20;;;;;;;3.90;3.17;;;;;;;4.47;nan;-23941.19;5035269;28;20593;-73
2022/11/24 05:02:46;;;;;;;10.57;4.13;;;;;;;4.50;nan;-23942.19;5032919;28;20187;-73
2022/11/24 05:05:11;;;;;;;5.23;3.77;;;;;;;4.39;nan;-23939.19;5032695;28;20191;-73
2022/11/24 05:07:36;;;;;;;5.20;4.07;;;;;;;4.47;nan;-23941.19;5034149;28;20265;-73
2022/11/24 05:12:55;;;;;;;6.20;3.33;;;;;;;4.15;nan;-23932.34;5032785;28;20209;-74
2022/11/24 05:15:20;;;;;;;5.60;3.93;;;;;;;4.52;nan;-23942.75;5035023;28;20255;-72
2022/11/24 05:17:46;;;;;;;8.30;4.53;;;;;;;4.57;nan;-23944.03;5022140;28;20575;-72
2022/11/24 05:20:11;;;;;;;5.00;3.83;;;;;;;4.16;nan;-23932.63;5024915;28;20183;-74
2022/11/24 05:22:36;;;;;;;4.53;2.90;;;;;;;4.50;nan;-23942.03;5031755;28;20210;-73
2022/11/24 05:25:02;;;;;;;6.60;4.00;;;;;;;4.19;nan;-23933.34;5031406;28;20590;-73
2022/11/24 05:27:28;;;;;;;6.43;4.50;;;;;;;4.19;nan;-23933.34;5031116;28;20172;-73
2022/11/24 05:29:53;;;;;;;4.17;3.30;;;;;;;4.59;nan;-23944.75;5031107;28;20231;-73
2022/11/24 05:32:19;;;;;;;6.63;3.90;;;;;;;4.31;nan;-23936.91;5031158;28;20194;-73
2022/11/24 05:34:44;;;;;;;10.83;5.00;;;;;;;4.58;nan;-23944.31;5031485;28;20561;-72
2022/11/24 05:37:10;;;;;;;5.47;4.10;;;;;;;4.28;nan;-23935.91;5031703;28;20175;-72
2022/11/24 05:39:36;;;;;;;5.20;3.60;;;;;;;4.37;nan;-23938.47;5031220;28;20171;-72
2022/11/24 05:42:39;;;;;;;5.73;3.27;;;;;;;4.52;nan;-23942.59;5031282;28;20229;-73
2022/11/24 05:44:49;;;;;;;6.67;3.60;;;;;;;4.49;nan;-23941.75;5030053;28;20187;-73
2022/11/24 05:47:14;;;;;;;12.27;4.30;;;;;;;4.51;nan;-23942.31;5031454;28;20178;-71
2022/11/24 05:49:40;;;;;;;8.83;3.67;;;;;;;4.71;nan;-23948.16;5012523;28;20251;-71
2022/11/24 05:52:05;;;;;;;9.03;5.40;;;;;;;4.56;nan;-23943.75;5010686;28;20276;-72
2022/11/24 05:54:30;;;;;;;10.60;4.60;;;;;;;4.37;nan;-23938.47;5010238;28;20176;-71
2022/11/24 05:56:56;;;;;;;9.47;5.80;;;;;;;4.58;nan;-23944.31;5010493;28;20179;-71
2022/11/24 05:59:21;;;;;;;6.37;4.20;;;;;;;4.97;nan;-23955.28;5010529;28;20566;-72
2022/11/24 06:01:47;;;;;;;6.10;3.37;;;;;;;5.05;nan;-23957.53;5011281;28;20169;-72
2022/11/24 06:04:12;;;;;;;7.20;4.53;;;;;;;4.88;nan;-23952.84;4994319;28;20259;-72
2022/11/24 06:06:38;;;;;;;5.43;3.43;;;;;;;5.16;nan;-23960.81;5011061;28;20194;-72
2022/11/24 06:09:04;;;;;;;5.63;3.87;;;;;;;4.98;nan;-23955.69;5008805;28;20567;-74
2022/11/24 06:11:29;;;;;;;4.30;3.53;;;;;;;5.29;nan;-23964.38;5014319;28;20290;-73
2022/11/24 06:13:55;;;;;;;7.67;4.60;;;;;;;5.08;nan;-23958.41;5023921;28;20191;-74
2022/11/24 06:16:20;;;;;;;14.87;3.73;;;;;;;5.43;nan;-23968.22;5010254;28;20175;-73
2022/11/24 06:18:46;;;;;;;9.13;3.53;;;;;;;5.64;nan;-23974.31;5021800;28;20206;-72
2022/11/24 06:21:11;;;;;;;6.40;4.07;;;;;;;5.73;nan;-23976.88;5030608;28;20179;-73
2022/11/24 06:23:37;;;;;;;7.30;3.73;;;;;;;5.90;nan;-23981.56;5030255;28;20182;-73
2022/11/24 06:26:02;;;;;;;6.30;3.50;;;;;;;5.81;nan;-23979.00;5030758;28;20176;-74
2022/11/24 06:28:28;;;;;;;4.70;3.63;;;;;;;5.74;nan;-23977.16;5030348;28;20168;-73
2022/11/24 06:30:53;;;;;;;6.00;3.83;;;;;;;6.25;nan;-23991.38;5030371;28;20175;-73
2022/11/24 06:33:19;;;;;;;5.60;3.40;;;;;;;6.09;nan;-23986.84;5030643;28;20168;-73
2022/11/24 06:35:45;;;;;;;5.63;4.10;;;;;;;6.31;nan;-23993.09;5030641;28;20164;-73
2022/11/24 06:38:10;;;;;;;6.13;3.43;;;;;;;6.51;nan;-23998.63;5030559;28;20574;-73
2022/11/24 06:40:36;;;;;;;8.10;4.23;;;;;;;6.64;nan;-24002.44;5030488;28;20211;-73
2022/11/24 06:43:01;;;;;;;7.87;4.30;;;;;;;6.85;nan;-24008.25;5030218;28;20655;-74
2022/11/24 06:45:27;;;;;;;8.13;3.70;;;;;;;6.88;nan;-24008.97;5012759;28;20328;-74
2022/11/24 06:47:53;;;;;;;6.13;3.80;;;;;;;6.53;nan;-23999.19;5029726;28;20172;-73
2022/11/24 06:50:19;;;;;;;6.67;4.30;;;;;;;6.90;nan;-24009.53;5012287;28;20621;-73
2022/11/24 06:52:44;;;;;;;8.87;4.70;;;;;;;7.12;nan;-24015.66;5030284;28;20207;-73
2022/11/24 06:55:10;;;;;;;3.80;3.13;;;;;;;7.08;nan;-24014.66;5030790;28;20175;-73
2022/11/24 06:57:36;;;;;;;7.00;3.87;;;;;;;7.47;nan;-24025.72;5030541;28;20363;-73
2022/11/24 07:00:04;;;;;;;5.20;3.80;;;;;;;7.68;nan;-24031.53;5012375;28;20213;-73
2022/11/24 07:02:30;;;;;;;7.47;3.67;;;;;;;7.59;nan;-24028.97;5012808;28;20179;-73
2022/11/24 07:04:55;;;;;;;4.63;3.20;;;;;;;7.83;nan;-24035.63;5029656;28;20250;-72
2022/11/24 07:07:20;;;;;;;8.00;4.43;;;;;;;7.30;nan;-24020.88;5032278;28;20606;-75
2022/11/24 07:09:46;;;;;;;7.13;4.43;;;;;;;7.76;nan;-24033.78;5033369;28;20179;-73
2022/11/24 07:12:11;;;;;;;6.10;3.30;;;;;;;7.76;nan;-24033.78;5033368;28;20679;-72
2022/11/24 07:14:36;;;;;;;9.40;4.40;;;;;;;7.82;nan;-24035.34;5033697;28;20183;-72
2022/11/24 07:17:03;;;;;;;6.40;3.60;;;;;;;8.09;nan;-24042.84;5033342;28;20254;-73
2022/11/24 07:19:29;;;;;;;14.17;4.43;;;;;;;8.02;nan;-24040.88;5033746;28;20175;-72
2022/11/24 07:21:55;;;;;;;7.27;3.50;;;;;;;7.96;nan;-24039.44;5033899;28;20198;-73
2022/11/24 07:24:21;;;;;;;5.20;3.97;;;;;;;8.32;nan;-24049.38;5033429;28;20659;-72
2022/11/24 07:26:46;;;;;;;8.63;3.57;;;;;;;8.04;nan;-24041.56;5032902;28;20262;-65
2022/11/24 07:29:11;;;;;;;8.07;3.60;;;;;;;8.57;nan;-24056.31;5033537;28;20650;-65
2022/11/24 07:31:37;;;;;;;5.23;3.60;;;;;;;8.13;nan;-24044.00;5033217;28;20199;-65
2022/11/24 07:34:02;;;;;;;7.13;3.63;;;;;;;8.64;nan;-24058.28;5033831;28;20218;-62
2022/11/24 07:36:27;;;;;;;5.87;3.83;;;;;;;8.61;nan;-24057.44;5033802;28;20639;-62
2022/11/24 07:38:53;;;;;;;5.77;3.33;;;;;;;9.00;nan;-24068.34;5033924;28;20171;-62
2022/11/24 07:41:19;;;;;;;7.77;4.50;;;;;;;9.16;nan;-24073.00;5033335;28;20206;-61
2022/11/24 07:43:45;;;;;;;12.05;4.78;;;;;;;9.28;nan;-24076.25;5033066;28;20187;-62
2022/11/24 07:46:12;;;;;;;5.32;3.60;;;;;;;9.12;nan;-24071.72;5032425;28;20175;-61
2022/11/24 07:48:38;;;;;;;7.40;4.82;;;;;;;9.27;nan;-24075.97;5033011;28;20171;-63
2022/11/24 07:51:04;;;;;;;9.38;4.75;;;;;;;9.44;nan;-24080.78;5033122;28;20240;-62
2022/11/24 07:53:30;;;;;;;6.60;4.30;;;;;;;9.61;nan;-24085.44;5032922;28;20699;-62
2022/11/24 07:56:00;;;;;;;6.55;3.80;;;;;;;9.88;nan;-24092.91;5015235;28;20320;-62
2022/11/24 07:58:28;;;;;;;6.57;3.30;;;;;;;10.04;nan;-24097.44;5032593;28;20228;-63
2022/11/24 08:00:53;;;;;;;4.25;3.05;;;;;;;10.51;nan;-24110.56;5033180;28;20163;-63
2022/11/24 08:03:19;;;;;;;4.40;2.75;;;;;;;10.62;nan;-24113.69;5033310;28;20187;-62
2022/11/24 08:05:53;;;;;;;5.47;2.88;;;;;;;10.42;nan;-24108.16;5033099;28;20179;-62
2022/11/24 08:08:18;;;;;;;5.03;2.80;;;;;;;10.51;nan;-24110.56;5033053;28;20190;-63
2022/11/24 08:10:43;;;;;;;3.20;2.22;;;;;;;10.54;nan;-24111.56;5032630;28;20255;-62
2022/11/24 08:13:09;;;;;;;3.85;2.60;;;;;;;10.72;nan;-24116.50;5032511;28;20234;-62
2022/11/24 08:15:34;;;;;;;3.75;2.80;;;;;;;11.37;nan;-24134.53;5033316;28;20653;-62
2022/11/24 08:18:01;;;;;;;4.15;2.63;;;;;;;11.14;nan;-24128.19;5032649;28;20639;-62
2022/11/24 08:20:26;;;;;;;5.15;2.72;;;;;;;11.14;nan;-24128.19;5032783;28;20183;-62
2022/11/24 08:22:56;;;;;;;5.07;3.10;;;;;;;11.79;nan;-24146.25;5032635;28;20178;-63
2022/11/24 08:25:24;;;;;;;11.50;2.50;;;;;;;11.76;nan;-24145.41;5032463;28;20175;-63
2022/11/24 08:27:49;;;;;;;4.68;2.75;;;;;;;11.93;nan;-24150.31;5032383;28;20176;-62
2022/11/24 08:30:15;;;;;;;6.40;2.35;;;;;;;11.98;nan;-24151.59;5032367;28;20578;-62
2022/11/24 08:32:40;;;;;;;3.17;2.50;;;;;;;12.01;nan;-24152.28;5032757;28;20234;-62
2022/11/24 08:35:06;;;;;;;3.17;2.15;;;;;;;11.70;nan;-24143.69;5027611;28;20182;-63
2022/11/24 08:37:31;;;;;;;2.67;2.28;;;;;;;11.73;nan;-24144.56;5015670;28;20186;-63
2022/11/24 08:39:57;;;;;;;3.22;2.15;;;;;;;12.16;nan;-24156.66;5023372;28;20184;-63
2022/11/24 08:42:22;;;;;;;2.58;1.92;;;;;;;11.98;nan;-24151.59;5012094;28;20246;-62
2022/11/24 08:44:47;;;;;;;2.85;2.17;;;;;;;12.12;nan;-24155.53;5026398;28;20187;-63
2022/11/24 08:47:13;;;;;;;3.70;2.15;;;;;;;12.62;nan;-24169.31;5032161;28;20222;-63
2022/11/24 08:49:38;;;;;;;4.40;2.58;;;;;;;12.77;nan;-24173.53;5031973;28;20653;-62
2022/11/24 08:52:04;;;;;;;3.22;2.47;;;;;;;12.83;nan;-24175.22;5031689;28;20338;-62
2022/11/24 08:54:29;;;;;;;2.95;2.38;;;;;;;12.58;nan;-24168.34;5031934;28;20176;-62
2022/11/24 08:56:55;;;;;;;4.32;2.30;;;;;;;12.90;nan;-24177.19;5031868;28;20218;-62
2022/11/24 08:59:20;;;;;;;4.97;2.50;;;;;;;12.67;nan;-24170.72;5031633;28;20664;-62
2022/11/24 09:01:45;;;;;;;3.80;2.53;;;;;;;13.27;nan;-24187.59;5032012;28;20175;-62
2022/11/24 09:04:11;;;;;;;3.90;2.50;;;;;;;13.44;nan;-24192.25;5032059;28;20754;-62
2022/11/24 09:06:36;;;;;;;7.25;2.60;;;;;;;13.56;nan;-24195.59;5032459;28;20220;-62
2022/11/24 09:09:02;;;;;;;3.65;2.25;;;;;;;13.65;nan;-24198.13;5031906;28;20176;-62
2022/11/24 09:11:28;;;;;;;4.70;2.47;;;;;;;13.64;nan;-24197.72;5031467;28;20233;-62
2022/11/24 09:13:54;;;;;;;6.32;3.10;;;;;;;13.44;nan;-24192.09;5031967;28;20190;-62
2022/11/24 09:16:25;;;;;;;3.00;2.55;;;;;;;13.80;nan;-24202.19;5031843;28;20338;-63
2022/11/24 09:19:09;;;;;;;6.47;2.90;;;;;;;14.08;nan;-24209.91;5031910;28;20166;-62
2022/11/24 09:21:38;;;;;;;4.20;2.72;;;;;;;13.83;nan;-24203.03;5031934;28;20207;-62
2022/11/24 09:24:04;;;;;;;4.93;2.53;;;;;;;14.06;nan;-24209.34;5014026;28;20178;-61
2022/11/24 09:26:33;;;;;;;6.53;2.72;;;;;;;14.37;nan;-24217.94;5032049;28;20569;-62
2022/11/24 09:29:01;;;;;;;8.52;2.70;;;;;;;14.56;nan;-24223.41;5031214;28;20280;-64
2022/11/24 09:31:31;;;;;;;3.72;2.22;;;;;;;14.43;nan;-24219.75;5031797;28;20191;-62
2022/11/24 09:33:56;;;;;;;3.22;2.38;;;;;;;14.65;nan;-24225.63;5031933;28;20267;-62
2022/11/24 09:36:22;;;;;;;4.75;2.40;;;;;;;15.01;nan;-24235.72;5031334;28;20207;-62
2022/11/24 09:38:48;;;;;;;4.10;2.40;;;;;;;15.04;nan;-24236.72;5031177;28;20717;-62
2022/11/24 09:41:16;;;;;;;3.08;2.25;;;;;;;15.03;nan;-24236.44;5031719;28;20587;-62
2022/11/24 09:44:03;;;;;;;3.72;2.35;;;;;;;15.23;nan;-24241.75;5031631;28;20182;-62
2022/11/24 10:03:28;;;;;;;3.15;1.88;;;;;;;14.96;100.00;-24234.47;5060276;28;20592;-64
2022/11/24 10:05:54;;;;;;;2.17;1.70;;;;;;;15.18;100.00;-24240.34;5050888;28;20190;-63
2022/11/24 10:08:34;;;;;;;2.55;1.60;;;;;;;15.07;100.00;-24237.28;5051756;28;20692;-64
2022/11/24 10:11:05;;;;;;;3.28;1.70;;;;;;;15.57;100.00;-24251.13;5049906;28;20206;-62
2022/11/24 10:13:33;;;;;;;1.60;1.50;;;;;;;15.42;100.00;-24247.06;5050219;28;20649;-64
2022/11/24 10:16:17;;;;;;;2.53;2.20;;;;;;;15.43;100.00;-24247.34;5050496;28;20225;-64
2022/11/24 10:19:11;;;;;;;2.25;1.60;;;;;;;15.05;100.00;-24236.84;5050824;28;20194;-64
2022/11/24 10:22:00;;;;;;;4.82;1.80;;;;;;;15.38;100.00;-24246.09;5051519;28;20198;-63
2022/11/24 10:24:38;;;;;;;1.90;1.55;;;;;;;15.56;100.00;-24250.84;5041599;28;20563;-63
2022/11/24 10:27:18;;;;;;;2.40;1.50;;;;;;;15.34;100.00;-24244.84;5047632;28;20641;-64
2022/11/24 10:29:48;;;;;;;2.85;2.05;;;;;;;15.38;100.00;-24246.09;5051036;28;20661;-63
2022/11/24 10:32:28;;;;;;;2.63;1.70;;;;;;;15.82;100.00;-24258.28;5048180;28;21204;-63
2022/11/24 10:35:05;;;;;;;2.53;1.92;;;;;;;15.55;100.00;-24250.56;5049101;28;20206;-64
2022/11/24 10:37:35;;;;;;;2.25;1.90;;;;;;;15.90;99.79;-24260.50;5049506;28;20637;-66
2022/11/24 10:40:33;;;;;;;2.33;1.80;;;;;;;16.17;98.06;-24267.94;5049869;28;20187;-63
2022/11/24 10:42:59;;;;;;;1.60;1.50;;;;;;;16.07;96.68;-24265.13;5048438;28;20673;-70
2022/11/24 10:45:27;;;;;;;2.50;1.88;;;;;;;16.13;96.43;-24266.66;5048692;28;20206;-64
2022/11/24 10:47:52;;;;;;;2.60;1.98;;;;;;;15.88;96.21;-24259.81;5049624;28;20181;-65
2022/11/24 10:50:25;;;;;;;2.28;1.65;;;;;;;16.24;95.97;-24269.75;5047110;28;20178;-64
2022/11/24 10:53:15;;;;;;;2.35;1.60;;;;;;;16.12;95.25;-24266.38;5048179;28;20266;-66
2022/11/24 10:55:55;;;;;;;2.00;1.80;;;;;;;16.17;95.39;-24267.94;5048335;28;20179;-65
2022/11/24 10:58:22;;;;;;;2.35;1.58;;;;;;;16.34;96.04;-24272.69;5049568;28;20191;-66
2022/11/24 11:00:48;;;;;;;2.03;1.48;;;;;;;16.20;95.33;-24268.75;5049047;28;20178;-66
2022/11/24 11:03:23;;;;;;;2.72;1.60;;;;;;;16.41;94.68;-24274.50;5042213;28;20528;-65
2022/11/24 11:05:53;;;;;;;6.75;1.67;;;;;;;16.46;95.76;-24275.88;5035136;28;20186;-66
2022/11/24 11:08:21;;;;;;;2.00;1.58;;;;;;;16.17;95.92;-24267.94;5036834;28;20187;-68
2022/11/24 11:10:50;;;;;;;2.28;1.77;;;;;;;16.02;95.77;-24263.72;5035610;28;20230;-67
2022/11/24 11:13:23;;;;;;;3.15;1.90;;;;;;;16.09;96.34;-24265.69;5036600;28;20176;-65
2022/11/24 11:15:48;;;;;;;1.98;1.70;;;;;;;15.73;96.94;-24255.75;5035722;28;20182;-65
2022/11/24 11:18:17;;;;;;;3.58;1.80;;;;;;;15.91;98.81;-24260.66;5035574;28;20206;-65
2022/11/24 11:20:50;;;;;;;2.75;1.98;;;;;;;15.81;99.24;-24257.84;5036931;28;20236;-66
2022/11/24 11:23:24;;;;;;;2.35;1.73;;;;;;;15.83;98.95;-24258.56;5034804;28;20206;-67
2022/11/24 11:25:49;;;;;;;3.30;1.70;;;;;;;15.72;99.25;-24255.34;5035856;28;20670;-65
2022/11/24 11:28:21;;;;;;;2.45;2.00;;;;;;;16.03;97.40;-24263.88;5035708;28;20266;-65
2022/11/24 11:31:02;;;;;;;1.88;1.50;;;;;;;16.05;96.29;-24264.44;5035549;28;20191;-73
2022/11/24 11:33:29;;;;;;;3.05;1.60;;;;;;;16.15;95.70;-24267.22;5036531;28;20186;-70
2022/11/24 11:36:00;;;;;;;2.00;1.45;;;;;;;15.86;95.57;-24259.38;5034614;28;20318;-65
2022/11/24 11:38:33;;;;;;;1.77;1.42;;;;;;;16.20;92.99;-24268.63;5035012;28;20183;-64
2022/11/24 11:41:01;;;;;;;1.73;1.40;;;;;;;16.43;92.35;-24275.06;5034703;28;20187;-66
2022/11/24 11:43:35;;;;;;;2.08;1.60;;;;;;;16.38;91.95;-24273.66;5035275;28;20171;-66
2022/11/24 11:46:11;;;;;;;1.67;1.40;;;;;;;16.61;92.41;-24280.09;5034819;28;20692;-67
2022/11/24 11:48:39;;;;;;;2.83;1.70;;;;;;;16.54;92.31;-24278.13;5036423;28;20175;-66
2022/11/24 11:51:26;;;;;;;2.08;1.67;;;;;;;16.60;90.08;-24279.81;5037476;28;20225;-69
2022/11/24 11:54:24;;;;;;;2.05;1.50;;;;;;;16.56;89.81;-24278.53;5036351;28;20188;-66
2022/11/24 11:57:15;;;;;;;2.40;1.63;;;;;;;16.39;91.24;-24273.78;5035839;28;20182;-65
2022/11/24 11:59:40;;;;;;;2.45;1.92;;;;;;;16.64;90.68;-24280.78;5035446;28;20203;-65
2022/11/24 12:02:35;;;;;;;3.10;1.73;;;;;;;16.21;94.23;-24269.03;5034872;28;20280;-65
2022/11/24 12:05:28;;;;;;;3.67;1.85;;;;;;;16.12;96.53;-24266.38;5034003;28;20212;-66
2022/11/24 12:08:32;;;;;;;2.92;2.10;;;;;;;15.93;97.18;-24261.22;5052145;28;20187;-65
2022/11/24 12:11:25;;;;;;;1.85;1.70;;;;;;;15.73;99.01;-24255.63;5026784;28;20220;-66